Bettina K — PBEW — position and weather

sailwx.info

Track history (hours):
 
Tides and Currents Weather Stations Pressure Air Temp Water Temp Dewpoint Dewpoint Depression Visibility Wind Speed Wind Dir Waves Ship Positions

Bettina K

Last reported at 2017-Mar-22 10:20 UTC. Time now 2017-Mar-23 22:14 UTC.
Position N 53°59' E 008°25'.

Length 82 m; draft 4.7 m.

Type: Cargo ship. MMSI: 244730469.

Date/timePositionNaut miles runAvg speedWind from/ knotsBaromVisibWave heightAir tempDewpointWater temp
2017-Mar-22 10:20N 53°59' E 008°25'911.7
2017-Mar-22 09:33N 53°56' E 008°40'1010.2
2017-Mar-22 08:34N 53°51' E 008°55'9 9.0
2017-Mar-22 07:33N 53°53' E 009°10'0 0.1
2017-Mar-22 06:33N 53°53' E 009°10'0 0.0
2017-Mar-22 05:33N 53°53' E 009°10'0 0.0
2017-Mar-22 04:33N 53°53' E 009°10'0 0.0
2017-Mar-22 03:30N 53°53' E 009°10'0 0.1
2017-Mar-22 02:33N 53°53' E 009°10'0 0.0
2017-Mar-22 01:33N 53°53' E 009°10'0 0.0
2017-Mar-22 00:33N 53°53' E 009°10'0 0.0
2017-Mar-21 23:33N 53°53' E 009°09'0 0.0
2017-Mar-21 22:33N 53°53' E 009°10'0 0.0
2017-Mar-21 21:33N 53°53' E 009°10'0 0.0
2017-Mar-21 20:33N 53°53' E 009°10'0 0.2
2017-Mar-21 19:33N 53°53' E 009°10'0 0.0
2017-Mar-21 18:33N 53°53' E 009°10'0 0.0
2017-Mar-21 17:27N 53°53' E 009°10'1 1.4
2017-Mar-21 16:33N 53°54' E 009°09'1 0.9
2017-Mar-21 15:33N 53°54' E 009°10'4 4.4
2017-Mar-21 14:33N 53°58' E 009°15'60 6.7
2017-Mar-21 05:30N 54°35' E 010°36'9 9.5
2017-Mar-21 04:33N 54°35' E 010°52'9 9.4
2017-Mar-21 03:34N 54°36' E 011°08'9 9.1
2017-Mar-21 02:33N 54°32' E 011°22'9 8.9
2017-Mar-21 01:33N 54°29' E 011°36'9 8.6
2017-Mar-21 00:33N 54°27' E 011°51'9 8.6
2017-Mar-20 23:33N 54°27' E 012°06'8 7.7
2017-Mar-20 22:34N 54°33' E 012°13'8 8.2
2017-Mar-20 21:33N 54°39' E 012°23'53 9.7
2017-Mar-20 16:07N 55°01' E 013°46'610.2
2017-Mar-20 15:30N 55°03' E 013°56'1010.3
2017-Mar-20 14:33N 55°09' E 014°09'1010.3
2017-Mar-20 13:34N 55°17' E 014°21'1010.3
2017-Mar-20 12:33N 55°25' E 014°34'10 9.9
2017-Mar-20 11:33N 55°30' E 014°48'10 9.8
2017-Mar-20 10:33N 55°36' E 015°02'1010.0
2017-Mar-20 09:33N 55°41' E 015°18'1010.0
2017-Mar-20 08:33N 55°46' E 015°33'1010.1
2017-Mar-20 07:34N 55°51' E 015°49'1010.0
2017-Mar-20 06:33N 55°56' E 016°04'1010.0
2017-Mar-20 05:33N 56°01' E 016°19'1010.0
2017-Mar-20 04:34N 56°06' E 016°35'1010.1
2017-Mar-20 03:33N 56°12' E 016°49'2310.1
2017-Mar-20 01:15N 56°26' E 017°23'  
Track history (hours):
 
Tides and Currents Weather Stations Pressure Air Temp Water Temp Dewpoint Dewpoint Depression Visibility Wind Speed Wind Dir Waves Ship Positions

Bettina K

Last reported at 2017-Mar-22 10:20 UTC. Time now 2017-Mar-23 22:14 UTC.
Position N 53°59' E 008°25'.

Length 82 m; draft 4.7 m.

Type: Cargo ship. MMSI: 244730469.

Date/timePositionNaut miles runAvg speedWind from/ knotsBaromVisibWave heightAir tempDewpointWater temp
2017-Mar-22 10:20N 53°59' E 008°25'911.7
2017-Mar-22 09:33N 53°56' E 008°40'1010.2
2017-Mar-22 08:34N 53°51' E 008°55'9 9.0
2017-Mar-22 07:33N 53°53' E 009°10'0 0.1
2017-Mar-22 06:33N 53°53' E 009°10'0 0.0
2017-Mar-22 05:33N 53°53' E 009°10'0 0.0
2017-Mar-22 04:33N 53°53' E 009°10'0 0.0
2017-Mar-22 03:30N 53°53' E 009°10'0 0.1
2017-Mar-22 02:33N 53°53' E 009°10'0 0.0
2017-Mar-22 01:33N 53°53' E 009°10'0 0.0
2017-Mar-22 00:33N 53°53' E 009°10'0 0.0
2017-Mar-21 23:33N 53°53' E 009°09'0 0.0
2017-Mar-21 22:33N 53°53' E 009°10'0 0.0
2017-Mar-21 21:33N 53°53' E 009°10'0 0.0
2017-Mar-21 20:33N 53°53' E 009°10'0 0.2
2017-Mar-21 19:33N 53°53' E 009°10'0 0.0
2017-Mar-21 18:33N 53°53' E 009°10'0 0.0
2017-Mar-21 17:27N 53°53' E 009°10'1 1.4
2017-Mar-21 16:33N 53°54' E 009°09'1 0.9
2017-Mar-21 15:33N 53°54' E 009°10'4 4.4
2017-Mar-21 14:33N 53°58' E 009°15'60 6.7
2017-Mar-21 05:30N 54°35' E 010°36'9 9.5
2017-Mar-21 04:33N 54°35' E 010°52'9 9.4
2017-Mar-21 03:34N 54°36' E 011°08'9 9.1
2017-Mar-21 02:33N 54°32' E 011°22'9 8.9
2017-Mar-21 01:33N 54°29' E 011°36'9 8.6
2017-Mar-21 00:33N 54°27' E 011°51'9 8.6
2017-Mar-20 23:33N 54°27' E 012°06'8 7.7
2017-Mar-20 22:34N 54°33' E 012°13'8 8.2
2017-Mar-20 21:33N 54°39' E 012°23'53 9.7
2017-Mar-20 16:07N 55°01' E 013°46'610.2
2017-Mar-20 15:30N 55°03' E 013°56'1010.3
2017-Mar-20 14:33N 55°09' E 014°09'1010.3
2017-Mar-20 13:34N 55°17' E 014°21'1010.3
2017-Mar-20 12:33N 55°25' E 014°34'10 9.9
2017-Mar-20 11:33N 55°30' E 014°48'10 9.8
2017-Mar-20 10:33N 55°36' E 015°02'1010.0
2017-Mar-20 09:33N 55°41' E 015°18'1010.0
2017-Mar-20 08:33N 55°46' E 015°33'1010.1
2017-Mar-20 07:34N 55°51' E 015°49'1010.0
2017-Mar-20 06:33N 55°56' E 016°04'1010.0
2017-Mar-20 05:33N 56°01' E 016°19'1010.0
2017-Mar-20 04:34N 56°06' E 016°35'1010.1
2017-Mar-20 03:33N 56°12' E 016°49'2310.1
2017-Mar-20 01:15N 56°26' E 017°23'  

Dump ship's entire track history